sensor_id;sensor_type;location;lat;lon;timestamp;temperature;humidity
148;DHT22;142;50.652;12.216;2022-10-22T00:02:19;12.50;69.80
148;DHT22;142;50.652;12.216;2022-10-22T00:04:47;12.50;70.00
148;DHT22;142;50.652;12.216;2022-10-22T00:07:15;12.50;69.90
148;DHT22;142;50.652;12.216;2022-10-22T00:09:45;12.50;69.80
148;DHT22;142;50.652;12.216;2022-10-22T00:12:13;12.60;69.90
148;DHT22;142;50.652;12.216;2022-10-22T00:14:42;12.60;70.00
148;DHT22;142;50.652;12.216;2022-10-22T00:17:09;12.60;70.00
148;DHT22;142;50.652;12.216;2022-10-22T00:19:36;12.60;69.70
148;DHT22;142;50.652;12.216;2022-10-22T00:22:03;12.60;69.80
148;DHT22;142;50.652;12.216;2022-10-22T00:24:31;12.70;70.20
148;DHT22;142;50.652;12.216;2022-10-22T00:27:00;12.70;70.20
148;DHT22;142;50.652;12.216;2022-10-22T00:29:27;12.70;70.20
148;DHT22;142;50.652;12.216;2022-10-22T00:31:54;12.70;70.00
148;DHT22;142;50.652;12.216;2022-10-22T00:34:22;12.70;70.10
148;DHT22;142;50.652;12.216;2022-10-22T00:36:50;12.80;70.20
148;DHT22;142;50.652;12.216;2022-10-22T00:39:19;12.90;70.10
148;DHT22;142;50.652;12.216;2022-10-22T00:41:48;12.90;70.10
148;DHT22;142;50.652;12.216;2022-10-22T00:47:22;12.90;69.80
148;DHT22;142;50.652;12.216;2022-10-22T00:49:51;13.00;70.00
148;DHT22;142;50.652;12.216;2022-10-22T00:52:19;13.00;70.10
148;DHT22;142;50.652;12.216;2022-10-22T00:54:48;13.00;70.00
148;DHT22;142;50.652;12.216;2022-10-22T00:57:16;13.00;69.90
148;DHT22;142;50.652;12.216;2022-10-22T00:59:43;13.00;69.70
148;DHT22;142;50.652;12.216;2022-10-22T01:02:10;13.00;69.60
148;DHT22;142;50.652;12.216;2022-10-22T01:04:39;13.00;69.50
148;DHT22;142;50.652;12.216;2022-10-22T01:07:08;13.00;69.70
148;DHT22;142;50.652;12.216;2022-10-22T01:09:41;13.10;69.80
148;DHT22;142;50.652;12.216;2022-10-22T01:12:17;13.10;70.00
148;DHT22;142;50.652;12.216;2022-10-22T01:14:55;13.10;70.10
148;DHT22;142;50.652;12.216;2022-10-22T01:17:31;13.10;70.00
148;DHT22;142;50.652;12.216;2022-10-22T01:20:09;13.10;69.80
148;DHT22;142;50.652;12.216;2022-10-22T01:22:42;13.10;69.90
148;DHT22;142;50.652;12.216;2022-10-22T01:25:16;13.20;69.90
148;DHT22;142;50.652;12.216;2022-10-22T01:27:53;13.20;69.90
148;DHT22;142;50.652;12.216;2022-10-22T01:30:23;13.10;69.80
148;DHT22;142;50.652;12.216;2022-10-22T01:32:53;13.20;69.80
148;DHT22;142;50.652;12.216;2022-10-22T01:35:26;13.10;69.60
148;DHT22;142;50.652;12.216;2022-10-22T01:37:56;13.10;69.50
148;DHT22;142;50.652;12.216;2022-10-22T01:40:26;13.10;69.60
148;DHT22;142;50.652;12.216;2022-10-22T01:42:55;13.10;69.60
148;DHT22;142;50.652;12.216;2022-10-22T01:45:25;13.10;69.60
148;DHT22;142;50.652;12.216;2022-10-22T01:47:57;13.10;69.50
148;DHT22;142;50.652;12.216;2022-10-22T01:51:00;13.10;69.60
148;DHT22;142;50.652;12.216;2022-10-22T01:53:34;13.10;69.50
148;DHT22;142;50.652;12.216;2022-10-22T01:56:13;13.10;69.30
148;DHT22;142;50.652;12.216;2022-10-22T01:58:49;13.10;69.40
148;DHT22;142;50.652;12.216;2022-10-22T02:01:25;13.10;69.40
148;DHT22;142;50.652;12.216;2022-10-22T02:04:00;13.10;69.30
148;DHT22;142;50.652;12.216;2022-10-22T02:06:28;13.10;69.20
148;DHT22;142;50.652;12.216;2022-10-22T02:08:59;13.10;69.20
148;DHT22;142;50.652;12.216;2022-10-22T02:11:28;13.00;69.10
148;DHT22;142;50.652;12.216;2022-10-22T02:13:58;13.10;69.20
148;DHT22;142;50.652;12.216;2022-10-22T02:16:31;13.00;69.00
148;DHT22;142;50.652;12.216;2022-10-22T02:19:03;13.00;69.10
148;DHT22;142;50.652;12.216;2022-10-22T02:21:31;13.10;69.20
148;DHT22;142;50.652;12.216;2022-10-22T02:23:58;13.10;69.30
148;DHT22;142;50.652;12.216;2022-10-22T02:26:30;13.10;69.30
148;DHT22;142;50.652;12.216;2022-10-22T02:29:02;13.10;69.20
148;DHT22;142;50.652;12.216;2022-10-22T02:31:36;13.00;69.10
148;DHT22;142;50.652;12.216;2022-10-22T02:34:08;13.00;69.10
148;DHT22;142;50.652;12.216;2022-10-22T02:36:36;13.00;69.00
148;DHT22;142;50.652;12.216;2022-10-22T02:39:04;13.10;69.20
148;DHT22;142;50.652;12.216;2022-10-22T02:41:32;13.10;69.10
148;DHT22;142;50.652;12.216;2022-10-22T02:43:59;13.10;69.10
148;DHT22;142;50.652;12.216;2022-10-22T02:46:27;13.00;69.00
148;DHT22;142;50.652;12.216;2022-10-22T02:48:56;13.00;68.90
148;DHT22;142;50.652;12.216;2022-10-22T02:51:23;13.00;69.00
148;DHT22;142;50.652;12.216;2022-10-22T02:53:49;13.00;69.10
148;DHT22;142;50.652;12.216;2022-10-22T02:56:17;13.10;69.20
148;DHT22;142;50.652;12.216;2022-10-22T02:58:44;13.00;69.10
148;DHT22;142;50.652;12.216;2022-10-22T03:01:11;13.00;69.20
148;DHT22;142;50.652;12.216;2022-10-22T03:03:39;13.00;69.10
148;DHT22;142;50.652;12.216;2022-10-22T03:06:08;13.00;69.20
148;DHT22;142;50.652;12.216;2022-10-22T03:08:35;13.00;68.80
148;DHT22;142;50.652;12.216;2022-10-22T03:11:02;13.00;69.10
148;DHT22;142;50.652;12.216;2022-10-22T03:13:29;13.00;69.10
148;DHT22;142;50.652;12.216;2022-10-22T03:15:56;13.10;69.40
148;DHT22;142;50.652;12.216;2022-10-22T03:18:23;13.10;69.50
148;DHT22;142;50.652;12.216;2022-10-22T03:20:56;13.10;69.50
148;DHT22;142;50.652;12.216;2022-10-22T03:23:26;13.10;69.50
148;DHT22;142;50.652;12.216;2022-10-22T03:25:54;13.10;69.10
148;DHT22;142;50.652;12.216;2022-10-22T03:28:21;13.10;69.30
148;DHT22;142;50.652;12.216;2022-10-22T03:30:48;13.10;69.40
148;DHT22;142;50.652;12.216;2022-10-22T03:33:15;13.20;69.40
148;DHT22;142;50.652;12.216;2022-10-22T03:35:45;13.20;69.40
148;DHT22;142;50.652;12.216;2022-10-22T03:38:13;13.30;69.50
148;DHT22;142;50.652;12.216;2022-10-22T03:40:43;13.30;69.30
148;DHT22;142;50.652;12.216;2022-10-22T03:43:12;13.30;69.20
148;DHT22;142;50.652;12.216;2022-10-22T03:45:39;13.20;69.10
148;DHT22;142;50.652;12.216;2022-10-22T03:48:06;13.30;69.30
148;DHT22;142;50.652;12.216;2022-10-22T03:50:34;13.40;69.60
148;DHT22;142;50.652;12.216;2022-10-22T03:53:01;13.40;69.60
148;DHT22;142;50.652;12.216;2022-10-22T03:55:28;13.30;69.40
148;DHT22;142;50.652;12.216;2022-10-22T03:57:56;13.40;69.70
148;DHT22;142;50.652;12.216;2022-10-22T04:00:23;13.50;69.70
148;DHT22;142;50.652;12.216;2022-10-22T04:02:50;13.50;69.60
148;DHT22;142;50.652;12.216;2022-10-22T04:05:17;13.50;69.50
148;DHT22;142;50.652;12.216;2022-10-22T04:07:44;13.50;69.70
148;DHT22;142;50.652;12.216;2022-10-22T04:10:12;13.60;69.80
148;DHT22;142;50.652;12.216;2022-10-22T04:12:39;13.60;69.90
148;DHT22;142;50.652;12.216;2022-10-22T04:15:08;13.60;69.40
148;DHT22;142;50.652;12.216;2022-10-22T04:17:36;13.50;69.30
148;DHT22;142;50.652;12.216;2022-10-22T04:20:04;13.50;69.50
148;DHT22;142;50.652;12.216;2022-10-22T04:22:32;13.60;69.70
148;DHT22;142;50.652;12.216;2022-10-22T04:25:00;13.70;70.00
148;DHT22;142;50.652;12.216;2022-10-22T04:27:29;13.70;70.00
148;DHT22;142;50.652;12.216;2022-10-22T04:29:56;13.70;69.60
148;DHT22;142;50.652;12.216;2022-10-22T04:32:25;13.70;69.80
148;DHT22;142;50.652;12.216;2022-10-22T04:34:52;13.70;69.90
148;DHT22;142;50.652;12.216;2022-10-22T04:37:19;13.70;70.10
148;DHT22;142;50.652;12.216;2022-10-22T04:39:46;13.80;70.40
148;DHT22;142;50.652;12.216;2022-10-22T04:42:13;13.90;70.50
148;DHT22;142;50.652;12.216;2022-10-22T04:44:40;13.90;70.80
148;DHT22;142;50.652;12.216;2022-10-22T04:47:08;14.00;70.90
148;DHT22;142;50.652;12.216;2022-10-22T04:49:36;13.90;70.60
148;DHT22;142;50.652;12.216;2022-10-22T04:52:03;14.00;70.50
148;DHT22;142;50.652;12.216;2022-10-22T04:54:31;14.00;70.70
148;DHT22;142;50.652;12.216;2022-10-22T04:56:58;14.10;70.80
148;DHT22;142;50.652;12.216;2022-10-22T04:59:25;14.10;70.90
148;DHT22;142;50.652;12.216;2022-10-22T05:01:51;14.10;70.70
148;DHT22;142;50.652;12.216;2022-10-22T05:04:18;14.00;70.20
148;DHT22;142;50.652;12.216;2022-10-22T05:06:47;14.00;70.40
148;DHT22;142;50.652;12.216;2022-10-22T05:09:16;14.10;70.50
148;DHT22;142;50.652;12.216;2022-10-22T05:11:45;14.10;70.60
148;DHT22;142;50.652;12.216;2022-10-22T05:14:14;14.20;70.50
148;DHT22;142;50.652;12.216;2022-10-22T05:16:42;14.10;70.30
148;DHT22;142;50.652;12.216;2022-10-22T05:19:15;14.10;70.20
148;DHT22;142;50.652;12.216;2022-10-22T05:21:43;14.00;69.90
148;DHT22;142;50.652;12.216;2022-10-22T05:24:12;14.00;69.90
148;DHT22;142;50.652;12.216;2022-10-22T05:26:39;14.10;70.10
148;DHT22;142;50.652;12.216;2022-10-22T05:29:06;14.10;70.20
148;DHT22;142;50.652;12.216;2022-10-22T05:31:34;14.10;70.20
148;DHT22;142;50.652;12.216;2022-10-22T05:34:01;14.10;70.30
148;DHT22;142;50.652;12.216;2022-10-22T05:36:28;14.00;70.20
148;DHT22;142;50.652;12.216;2022-10-22T05:38:56;14.00;70.20
148;DHT22;142;50.652;12.216;2022-10-22T05:41:26;14.00;70.30
148;DHT22;142;50.652;12.216;2022-10-22T05:43:54;14.00;70.40
148;DHT22;142;50.652;12.216;2022-10-22T05:46:23;14.00;70.50
148;DHT22;142;50.652;12.216;2022-10-22T05:48:51;14.10;70.70
148;DHT22;142;50.652;12.216;2022-10-22T05:51:19;14.10;70.70
148;DHT22;142;50.652;12.216;2022-10-22T05:53:50;14.10;70.80
148;DHT22;142;50.652;12.216;2022-10-22T05:56:18;14.10;70.80
148;DHT22;142;50.652;12.216;2022-10-22T05:58:47;14.10;70.80
148;DHT22;142;50.652;12.216;2022-10-22T06:01:16;14.10;70.80
148;DHT22;142;50.652;12.216;2022-10-22T06:03:43;14.10;70.60
148;DHT22;142;50.652;12.216;2022-10-22T06:06:17;14.10;70.70
148;DHT22;142;50.652;12.216;2022-10-22T06:08:46;14.10;70.40
148;DHT22;142;50.652;12.216;2022-10-22T06:11:14;14.00;70.30
148;DHT22;142;50.652;12.216;2022-10-22T06:13:42;14.00;70.50
148;DHT22;142;50.652;12.216;2022-10-22T06:16:11;13.90;70.60
148;DHT22;142;50.652;12.216;2022-10-22T06:18:38;13.90;70.80
148;DHT22;142;50.652;12.216;2022-10-22T06:21:06;13.90;71.00
148;DHT22;142;50.652;12.216;2022-10-22T06:23:33;13.90;71.30
148;DHT22;142;50.652;12.216;2022-10-22T06:26:01;13.90;71.40
148;DHT22;142;50.652;12.216;2022-10-22T06:28:28;14.00;71.60
148;DHT22;142;50.652;12.216;2022-10-22T06:30:56;14.00;71.70
148;DHT22;142;50.652;12.216;2022-10-22T06:33:25;13.90;71.60
148;DHT22;142;50.652;12.216;2022-10-22T06:35:53;13.90;71.60
148;DHT22;142;50.652;12.216;2022-10-22T06:38:20;14.00;71.80
148;DHT22;142;50.652;12.216;2022-10-22T06:40:47;14.00;71.90
148;DHT22;142;50.652;12.216;2022-10-22T06:43:14;13.90;71.80
148;DHT22;142;50.652;12.216;2022-10-22T06:45:41;13.90;71.70
148;DHT22;142;50.652;12.216;2022-10-22T06:48:09;14.00;71.90
148;DHT22;142;50.652;12.216;2022-10-22T06:50:37;14.00;72.00
148;DHT22;142;50.652;12.216;2022-10-22T06:53:04;14.10;72.10
148;DHT22;142;50.652;12.216;2022-10-22T06:55:31;14.10;72.10
148;DHT22;142;50.652;12.216;2022-10-22T06:57:58;14.20;72.00
148;DHT22;142;50.652;12.216;2022-10-22T07:00:25;14.20;71.70
148;DHT22;142;50.652;12.216;2022-10-22T07:02:53;14.10;71.70
148;DHT22;142;50.652;12.216;2022-10-22T07:05:20;14.10;71.60
148;DHT22;142;50.652;12.216;2022-10-22T07:07:48;14.20;71.70
148;DHT22;142;50.652;12.216;2022-10-22T07:10:16;14.20;71.70
148;DHT22;142;50.652;12.216;2022-10-22T07:12:43;14.20;71.70
148;DHT22;142;50.652;12.216;2022-10-22T07:15:10;14.30;71.70
148;DHT22;142;50.652;12.216;2022-10-22T07:17:37;14.30;71.70
148;DHT22;142;50.652;12.216;2022-10-22T07:20:05;14.20;71.60
148;DHT22;142;50.652;12.216;2022-10-22T07:22:32;14.30;71.60
148;DHT22;142;50.652;12.216;2022-10-22T07:25:01;14.20;71.40
148;DHT22;142;50.652;12.216;2022-10-22T07:27:28;14.20;71.50
148;DHT22;142;50.652;12.216;2022-10-22T07:29:55;14.30;71.70
148;DHT22;142;50.652;12.216;2022-10-22T07:32:25;14.20;71.40
148;DHT22;142;50.652;12.216;2022-10-22T07:34:52;14.10;71.20
148;DHT22;142;50.652;12.216;2022-10-22T07:37:19;14.10;71.30
148;DHT22;142;50.652;12.216;2022-10-22T07:39:48;14.20;71.40
148;DHT22;142;50.652;12.216;2022-10-22T07:42:17;14.30;71.70
148;DHT22;142;50.652;12.216;2022-10-22T07:44:44;14.40;71.90
148;DHT22;142;50.652;12.216;2022-10-22T07:47:10;14.40;71.80
148;DHT22;142;50.652;12.216;2022-10-22T07:49:37;14.30;71.50
148;DHT22;142;50.652;12.216;2022-10-22T07:52:06;14.30;71.70
148;DHT22;142;50.652;12.216;2022-10-22T07:54:33;14.40;71.80
148;DHT22;142;50.652;12.216;2022-10-22T07:57:00;14.40;71.80
148;DHT22;142;50.652;12.216;2022-10-22T07:59:29;14.40;71.80
148;DHT22;142;50.652;12.216;2022-10-22T08:01:56;14.50;71.90
148;DHT22;142;50.652;12.216;2022-10-22T08:04:23;14.50;72.10
148;DHT22;142;50.652;12.216;2022-10-22T08:06:51;14.60;72.30
148;DHT22;142;50.652;12.216;2022-10-22T08:09:18;14.60;72.10
148;DHT22;142;50.652;12.216;2022-10-22T08:11:47;14.50;71.80
148;DHT22;142;50.652;12.216;2022-10-22T08:14:14;14.50;71.80
148;DHT22;142;50.652;12.216;2022-10-22T08:16:42;14.50;71.90
148;DHT22;142;50.652;12.216;2022-10-22T08:19:09;14.60;72.10
148;DHT22;142;50.652;12.216;2022-10-22T08:21:38;14.70;72.30
148;DHT22;142;50.652;12.216;2022-10-22T08:24:06;14.80;72.40
148;DHT22;142;50.652;12.216;2022-10-22T08:26:35;14.80;72.50
148;DHT22;142;50.652;12.216;2022-10-22T08:29:03;14.90;72.30
148;DHT22;142;50.652;12.216;2022-10-22T08:31:31;14.90;71.90
148;DHT22;142;50.652;12.216;2022-10-22T08:33:59;15.00;72.00
148;DHT22;142;50.652;12.216;2022-10-22T08:36:26;15.10;72.00
148;DHT22;142;50.652;12.216;2022-10-22T08:38:53;15.30;72.10
148;DHT22;142;50.652;12.216;2022-10-22T08:41:22;15.40;72.00
148;DHT22;142;50.652;12.216;2022-10-22T08:44:11;15.60;71.90
148;DHT22;142;50.652;12.216;2022-10-22T08:47:00;15.70;71.60
148;DHT22;142;50.652;12.216;2022-10-22T08:49:34;15.70;71.10
148;DHT22;142;50.652;12.216;2022-10-22T08:52:02;15.80;70.80
148;DHT22;142;50.652;12.216;2022-10-22T08:54:36;15.90;70.60
148;DHT22;142;50.652;12.216;2022-10-22T08:57:19;15.90;70.10
148;DHT22;142;50.652;12.216;2022-10-22T08:59:53;15.90;69.20
148;DHT22;142;50.652;12.216;2022-10-22T09:02:32;15.90;68.50
148;DHT22;142;50.652;12.216;2022-10-22T09:05:11;15.90;68.10
148;DHT22;142;50.652;12.216;2022-10-22T09:07:42;15.80;66.70
148;DHT22;142;50.652;12.216;2022-10-22T09:10:15;15.90;66.50
148;DHT22;142;50.652;12.216;2022-10-22T09:12:43;16.00;66.70
148;DHT22;142;50.652;12.216;2022-10-22T09:15:15;16.10;66.30
148;DHT22;142;50.652;12.216;2022-10-22T09:17:51;16.30;66.40
148;DHT22;142;50.652;12.216;2022-10-22T09:20:28;16.40;65.80
148;DHT22;142;50.652;12.216;2022-10-22T09:23:04;16.50;65.30
148;DHT22;142;50.652;12.216;2022-10-22T09:25:36;16.50;64.70
148;DHT22;142;50.652;12.216;2022-10-22T09:28:07;16.60;64.80
148;DHT22;142;50.652;12.216;2022-10-22T09:30:36;16.60;63.50
148;DHT22;142;50.652;12.216;2022-10-22T09:33:11;16.70;63.70
148;DHT22;142;50.652;12.216;2022-10-22T09:35:47;16.70;63.50
148;DHT22;142;50.652;12.216;2022-10-22T09:38:20;16.60;62.50
148;DHT22;142;50.652;12.216;2022-10-22T09:40:50;16.60;62.70
148;DHT22;142;50.652;12.216;2022-10-22T09:43:18;16.60;62.70
148;DHT22;142;50.652;12.216;2022-10-22T09:45:47;16.70;62.80
148;DHT22;142;50.652;12.216;2022-10-22T09:48:19;16.60;62.60
148;DHT22;142;50.652;12.216;2022-10-22T09:50:59;16.70;62.50
148;DHT22;142;50.652;12.216;2022-10-22T09:53:30;16.70;62.60
148;DHT22;142;50.652;12.216;2022-10-22T09:56:06;16.80;62.40
148;DHT22;142;50.652;12.216;2022-10-22T09:58:41;16.70;61.90
148;DHT22;142;50.652;12.216;2022-10-22T10:01:17;16.60;62.80
148;DHT22;142;50.652;12.216;2022-10-22T10:03:46;16.70;63.50
148;DHT22;142;50.652;12.216;2022-10-22T10:06:19;16.70;63.70
148;DHT22;142;50.652;12.216;2022-10-22T10:08:47;16.70;62.70
148;DHT22;142;50.652;12.216;2022-10-22T10:11:22;16.80;63.10
148;DHT22;142;50.652;12.216;2022-10-22T10:13:59;16.90;63.10
148;DHT22;142;50.652;12.216;2022-10-22T10:16:40;16.90;62.90
148;DHT22;142;50.652;12.216;2022-10-22T10:19:23;16.90;62.60
148;DHT22;142;50.652;12.216;2022-10-22T10:22:01;17.00;62.40
148;DHT22;142;50.652;12.216;2022-10-22T10:24:45;17.00;61.80
148;DHT22;142;50.652;12.216;2022-10-22T10:27:23;17.10;61.50
148;DHT22;142;50.652;12.216;2022-10-22T10:29:55;17.00;60.80
148;DHT22;142;50.652;12.216;2022-10-22T10:32:32;17.00;61.20
148;DHT22;142;50.652;12.216;2022-10-22T10:35:13;17.20;61.10
148;DHT22;142;50.652;12.216;2022-10-22T10:37:48;17.20;61.30
148;DHT22;142;50.652;12.216;2022-10-22T10:40:27;17.40;61.20
148;DHT22;142;50.652;12.216;2022-10-22T10:42:59;17.50;60.60
148;DHT22;142;50.652;12.216;2022-10-22T10:45:31;17.50;60.20
148;DHT22;142;50.652;12.216;2022-10-22T10:48:17;17.60;59.90
148;DHT22;142;50.652;12.216;2022-10-22T10:50:57;17.60;58.50
148;DHT22;142;50.652;12.216;2022-10-22T10:53:38;17.60;58.20
148;DHT22;142;50.652;12.216;2022-10-22T10:56:19;17.70;57.60
148;DHT22;142;50.652;12.216;2022-10-22T10:58:56;17.70;57.60
148;DHT22;142;50.652;12.216;2022-10-22T11:01:28;17.80;57.00
148;DHT22;142;50.652;12.216;2022-10-22T11:06:58;17.80;56.30
148;DHT22;142;50.652;12.216;2022-10-22T11:09:33;17.90;56.00
148;DHT22;142;50.652;12.216;2022-10-22T11:12:04;18.00;55.80
148;DHT22;142;50.652;12.216;2022-10-22T11:14:40;18.00;55.10
148;DHT22;142;50.652;12.216;2022-10-22T11:17:16;18.10;54.50
148;DHT22;142;50.652;12.216;2022-10-22T11:19:49;18.00;54.20
148;DHT22;142;50.652;12.216;2022-10-22T11:22:22;18.00;54.10
148;DHT22;142;50.652;12.216;2022-10-22T11:24:56;18.00;53.70
148;DHT22;142;50.652;12.216;2022-10-22T11:27:30;18.00;54.00
148;DHT22;142;50.652;12.216;2022-10-22T11:30:03;18.00;54.30
148;DHT22;142;50.652;12.216;2022-10-22T11:32:32;18.00;54.10
148;DHT22;142;50.652;12.216;2022-10-22T11:35:02;18.00;54.30
148;DHT22;142;50.652;12.216;2022-10-22T11:37:32;18.00;53.20
148;DHT22;142;50.652;12.216;2022-10-22T11:40:06;18.10;53.00
148;DHT22;142;50.652;12.216;2022-10-22T11:42:36;18.20;53.00
148;DHT22;142;50.652;12.216;2022-10-22T11:45:22;18.20;53.00
148;DHT22;142;50.652;12.216;2022-10-22T11:47:58;18.30;52.90
148;DHT22;142;50.652;12.216;2022-10-22T11:50:44;18.30;52.60
148;DHT22;142;50.652;12.216;2022-10-22T11:53:17;18.30;51.70
148;DHT22;142;50.652;12.216;2022-10-22T11:55:49;18.30;52.10
148;DHT22;142;50.652;12.216;2022-10-22T11:58:32;18.40;52.00
148;DHT22;142;50.652;12.216;2022-10-22T12:01:20;18.40;51.20
148;DHT22;142;50.652;12.216;2022-10-22T12:03:50;18.40;51.20
148;DHT22;142;50.652;12.216;2022-10-22T12:06:21;18.50;51.20
148;DHT22;142;50.652;12.216;2022-10-22T12:08:57;18.50;51.10
148;DHT22;142;50.652;12.216;2022-10-22T12:11:27;18.50;50.80
148;DHT22;142;50.652;12.216;2022-10-22T12:14:12;18.50;51.20
148;DHT22;142;50.652;12.216;2022-10-22T12:16:43;18.60;51.30
148;DHT22;142;50.652;12.216;2022-10-22T12:19:16;18.60;51.00
148;DHT22;142;50.652;12.216;2022-10-22T12:21:47;18.60;50.80
148;DHT22;142;50.652;12.216;2022-10-22T12:24:16;18.60;51.20
148;DHT22;142;50.652;12.216;2022-10-22T12:26:47;18.50;51.10
148;DHT22;142;50.652;12.216;2022-10-22T12:29:18;18.50;51.30
148;DHT22;142;50.652;12.216;2022-10-22T12:31:47;18.50;51.70
148;DHT22;142;50.652;12.216;2022-10-22T12:34:16;18.50;51.70
148;DHT22;142;50.652;12.216;2022-10-22T12:36:49;18.40;51.40
148;DHT22;142;50.652;12.216;2022-10-22T12:39:18;18.50;52.00
148;DHT22;142;50.652;12.216;2022-10-22T12:41:46;18.50;52.30
148;DHT22;142;50.652;12.216;2022-10-22T12:44:15;18.50;52.10
148;DHT22;142;50.652;12.216;2022-10-22T12:46:44;18.40;51.70
148;DHT22;142;50.652;12.216;2022-10-22T12:49:16;18.50;51.80
148;DHT22;142;50.652;12.216;2022-10-22T12:51:43;18.50;52.10
148;DHT22;142;50.652;12.216;2022-10-22T12:54:21;18.40;51.80
148;DHT22;142;50.652;12.216;2022-10-22T12:56:50;18.30;51.60
148;DHT22;142;50.652;12.216;2022-10-22T12:59:21;18.30;51.80
148;DHT22;142;50.652;12.216;2022-10-22T13:01:49;18.30;51.70
148;DHT22;142;50.652;12.216;2022-10-22T13:04:30;18.40;51.30
148;DHT22;142;50.652;12.216;2022-10-22T13:07:14;18.40;51.40
148;DHT22;142;50.652;12.216;2022-10-22T13:09:45;18.50;51.50
148;DHT22;142;50.652;12.216;2022-10-22T13:12:14;18.60;51.50
148;DHT22;142;50.652;12.216;2022-10-22T13:14:49;18.60;50.90
148;DHT22;142;50.652;12.216;2022-10-22T13:17:18;18.60;51.20
148;DHT22;142;50.652;12.216;2022-10-22T13:19:48;18.70;50.90
148;DHT22;142;50.652;12.216;2022-10-22T13:22:24;18.70;51.30
148;DHT22;142;50.652;12.216;2022-10-22T13:24:53;18.70;50.70
148;DHT22;142;50.652;12.216;2022-10-22T13:27:22;18.70;50.90
148;DHT22;142;50.652;12.216;2022-10-22T13:29:50;18.70;51.20
148;DHT22;142;50.652;12.216;2022-10-22T13:32:26;18.60;51.30
148;DHT22;142;50.652;12.216;2022-10-22T13:34:55;18.60;51.40
148;DHT22;142;50.652;12.216;2022-10-22T13:37:23;18.70;51.60
148;DHT22;142;50.652;12.216;2022-10-22T13:39:50;18.80;51.20
148;DHT22;142;50.652;12.216;2022-10-22T13:42:17;18.80;51.30
148;DHT22;142;50.652;12.216;2022-10-22T13:44:46;18.80;50.80
148;DHT22;142;50.652;12.216;2022-10-22T13:47:23;18.80;50.80
148;DHT22;142;50.652;12.216;2022-10-22T13:49:52;18.70;50.80
148;DHT22;142;50.652;12.216;2022-10-22T13:52:28;18.60;50.90
148;DHT22;142;50.652;12.216;2022-10-22T13:54:55;18.70;51.10
148;DHT22;142;50.652;12.216;2022-10-22T13:57:23;18.70;50.50
148;DHT22;142;50.652;12.216;2022-10-22T13:59:51;18.70;50.80
148;DHT22;142;50.652;12.216;2022-10-22T14:02:18;18.50;50.30
148;DHT22;142;50.652;12.216;2022-10-22T14:04:49;18.40;50.00
148;DHT22;142;50.652;12.216;2022-10-22T14:07:16;18.30;50.40
148;DHT22;142;50.652;12.216;2022-10-22T14:09:43;18.30;50.60
148;DHT22;142;50.652;12.216;2022-10-22T14:12:13;18.30;50.80
148;DHT22;142;50.652;12.216;2022-10-22T14:14:40;18.30;50.80
148;DHT22;142;50.652;12.216;2022-10-22T14:17:11;18.30;51.00
148;DHT22;142;50.652;12.216;2022-10-22T14:19:42;18.30;51.00
148;DHT22;142;50.652;12.216;2022-10-22T14:22:12;18.20;50.80
148;DHT22;142;50.652;12.216;2022-10-22T14:24:40;18.20;51.30
148;DHT22;142;50.652;12.216;2022-10-22T14:27:10;18.20;51.30
148;DHT22;142;50.652;12.216;2022-10-22T14:29:38;18.20;51.50
148;DHT22;142;50.652;12.216;2022-10-22T14:32:11;18.20;51.40
148;DHT22;142;50.652;12.216;2022-10-22T14:34:38;18.10;51.30
148;DHT22;142;50.652;12.216;2022-10-22T14:37:14;18.10;51.40
148;DHT22;142;50.652;12.216;2022-10-22T14:39:42;18.00;51.60
148;DHT22;142;50.652;12.216;2022-10-22T14:42:11;18.00;52.20
148;DHT22;142;50.652;12.216;2022-10-22T14:44:38;17.90;52.20
148;DHT22;142;50.652;12.216;2022-10-22T14:47:05;17.90;52.00
148;DHT22;142;50.652;12.216;2022-10-22T14:49:34;17.80;52.40
148;DHT22;142;50.652;12.216;2022-10-22T14:52:01;17.80;52.30
148;DHT22;142;50.652;12.216;2022-10-22T14:54:29;17.80;52.50
148;DHT22;142;50.652;12.216;2022-10-22T14:56:56;17.80;52.30
148;DHT22;142;50.652;12.216;2022-10-22T14:59:23;17.70;52.80
148;DHT22;142;50.652;12.216;2022-10-22T15:01:50;17.70;52.70
148;DHT22;142;50.652;12.216;2022-10-22T15:04:18;17.70;53.00
148;DHT22;142;50.652;12.216;2022-10-22T15:06:46;17.70;53.00
148;DHT22;142;50.652;12.216;2022-10-22T15:09:13;17.70;52.90
148;DHT22;142;50.652;12.216;2022-10-22T15:11:40;17.70;52.90
148;DHT22;142;50.652;12.216;2022-10-22T15:14:07;17.70;53.00
148;DHT22;142;50.652;12.216;2022-10-22T15:16:35;17.60;53.00
148;DHT22;142;50.652;12.216;2022-10-22T15:19:02;17.60;53.10
148;DHT22;142;50.652;12.216;2022-10-22T15:21:29;17.50;53.30
148;DHT22;142;50.652;12.216;2022-10-22T15:24:00;17.40;53.70
148;DHT22;142;50.652;12.216;2022-10-22T15:26:27;17.30;54.10
148;DHT22;142;50.652;12.216;2022-10-22T15:28:54;17.30;54.00
148;DHT22;142;50.652;12.216;2022-10-22T15:31:43;17.10;54.60
148;DHT22;142;50.652;12.216;2022-10-22T15:34:11;17.00;55.10
148;DHT22;142;50.652;12.216;2022-10-22T15:36:38;17.00;55.10
148;DHT22;142;50.652;12.216;2022-10-22T15:39:08;17.00;54.90
148;DHT22;142;50.652;12.216;2022-10-22T15:41:36;17.00;54.90
148;DHT22;142;50.652;12.216;2022-10-22T15:44:04;17.00;55.00
148;DHT22;142;50.652;12.216;2022-10-22T15:46:33;17.00;54.80
148;DHT22;142;50.652;12.216;2022-10-22T15:49:00;17.00;55.10
148;DHT22;142;50.652;12.216;2022-10-22T15:51:27;17.00;55.00
148;DHT22;142;50.652;12.216;2022-10-22T15:53:56;16.90;55.10
148;DHT22;142;50.652;12.216;2022-10-22T15:56:26;16.90;55.10
148;DHT22;142;50.652;12.216;2022-10-22T15:58:56;16.80;55.30
148;DHT22;142;50.652;12.216;2022-10-22T16:01:24;16.70;55.50
148;DHT22;142;50.652;12.216;2022-10-22T16:03:52;16.60;55.70
148;DHT22;142;50.652;12.216;2022-10-22T16:06:25;16.60;56.00
148;DHT22;142;50.652;12.216;2022-10-22T16:08:53;16.70;55.90
148;DHT22;142;50.652;12.216;2022-10-22T16:11:23;16.60;55.80
148;DHT22;142;50.652;12.216;2022-10-22T16:13:52;16.60;55.70
148;DHT22;142;50.652;12.216;2022-10-22T16:16:21;16.60;55.70
148;DHT22;142;50.652;12.216;2022-10-22T16:18:48;16.60;55.70
148;DHT22;142;50.652;12.216;2022-10-22T16:21:16;16.50;56.20
148;DHT22;142;50.652;12.216;2022-10-22T16:23:43;16.50;56.10
148;DHT22;142;50.652;12.216;2022-10-22T16:26:11;16.50;56.40
148;DHT22;142;50.652;12.216;2022-10-22T16:28:40;16.50;56.50
148;DHT22;142;50.652;12.216;2022-10-22T16:31:10;16.50;56.80
148;DHT22;142;50.652;12.216;2022-10-22T16:33:38;16.50;57.00
148;DHT22;142;50.652;12.216;2022-10-22T16:36:07;16.40;56.70
148;DHT22;142;50.652;12.216;2022-10-22T16:38:34;16.40;57.10
148;DHT22;142;50.652;12.216;2022-10-22T16:41:08;16.40;57.00
148;DHT22;142;50.652;12.216;2022-10-22T16:43:36;16.30;57.10